Terminal Aerodrome Forecast
Issued by NWS

Home | Current Version | Previous Version | Text Only | Print | Product List | Glossary On
Versions: 1 2 3 4 5 6 7 8 9 10 11 12 13
202
FTUS43 KAPX 201136
TAFAPN
TAF
KAPN 201136Z 2012/2112 VRB03KT P6SM BKN200
     FM201500 12007KT P6SM BKN150
     FM210400 15009KT P6SM BKN140
     FM210600 16008KT P6SM OVC100 WS020/18040KT
     FM210900 17008KT 4SM -SHRA OVC025 WS020/19040KT=

USA.gov is the U.S. government's official web portal to all federal, state and local government web resources and services.